createdAt,value
2023-05-03T00:00:23.987Z,99.90
2023-05-03T00:02:54.222Z,99.90
2023-05-03T00:05:22.903Z,99.90
2023-05-03T00:07:51.485Z,99.90
2023-05-03T00:10:20.025Z,99.90
2023-05-03T00:12:48.500Z,99.90
2023-05-03T00:15:18.429Z,99.90
2023-05-03T00:17:47.646Z,99.90
2023-05-03T00:20:17.625Z,99.90
2023-05-03T00:22:46.263Z,99.90
2023-05-03T00:25:15.386Z,99.90
2023-05-03T00:27:44.069Z,99.90
2023-05-03T00:30:13.280Z,99.90
2023-05-03T00:32:43.226Z,99.90
2023-05-03T00:35:11.976Z,99.90
2023-05-03T00:37:40.541Z,99.90
2023-05-03T00:40:10.978Z,99.90
2023-05-03T00:42:39.468Z,99.90
2023-05-03T00:45:09.002Z,99.90
2023-05-03T00:47:38.320Z,99.90
2023-05-03T00:50:12.148Z,99.90
2023-05-03T00:52:41.843Z,99.90
2023-05-03T00:55:11.572Z,99.90
2023-05-03T00:57:40.070Z,99.90
2023-05-03T01:00:10.843Z,99.90
2023-05-03T01:02:39.540Z,99.90
2023-05-03T01:05:10.964Z,99.90
2023-05-03T01:07:47.341Z,99.90
2023-05-03T01:10:24.453Z,99.90
2023-05-03T01:13:01.859Z,99.90
2023-05-03T01:15:47.121Z,99.90
2023-05-03T01:18:20.050Z,99.90
2023-05-03T01:20:50.760Z,99.90
2023-05-03T01:23:34.376Z,99.90
2023-05-03T01:26:20.886Z,99.90
2023-05-03T01:28:49.489Z,99.90
2023-05-03T01:31:23.857Z,99.90
2023-05-03T01:34:03.363Z,99.90
2023-05-03T01:36:34.049Z,99.90
2023-05-03T01:39:07.806Z,99.90
2023-05-03T01:41:40.010Z,99.90
2023-05-03T01:44:10.335Z,99.90
2023-05-03T01:46:44.336Z,99.90
2023-05-03T01:49:13.348Z,99.90
2023-05-03T01:51:41.850Z,99.90
2023-05-03T01:54:10.500Z,99.90
2023-05-03T01:56:40.427Z,99.90
2023-05-03T01:59:09.061Z,99.90
2023-05-03T02:01:37.807Z,99.90
2023-05-03T02:04:06.451Z,99.90
2023-05-03T02:06:35.627Z,99.90
2023-05-03T02:09:04.228Z,99.90
2023-05-03T02:11:32.877Z,99.90
2023-05-03T02:14:02.948Z,99.90
2023-05-03T02:16:31.707Z,99.90
2023-05-03T02:19:00.947Z,99.90
2023-05-03T02:21:29.442Z,99.90
2023-05-03T02:23:57.951Z,99.90
2023-05-03T02:26:26.478Z,99.90
2023-05-03T02:28:56.045Z,99.90
2023-05-03T02:31:27.019Z,99.90
2023-05-03T02:33:56.047Z,99.90
2023-05-03T02:36:24.445Z,99.90
2023-05-03T02:38:53.053Z,99.90
2023-05-03T02:41:21.562Z,99.90
2023-05-03T02:43:50.030Z,99.90
2023-05-03T02:46:18.935Z,99.90
2023-05-03T02:48:48.886Z,99.90
2023-05-03T02:51:17.453Z,99.90
2023-05-03T02:53:45.900Z,99.90
2023-05-03T02:56:14.408Z,99.90
2023-05-03T02:58:42.863Z,99.90
2023-05-03T03:01:12.674Z,99.90
2023-05-03T03:03:41.352Z,99.90
2023-05-03T03:06:11.398Z,99.90
2023-05-03T03:08:40.038Z,99.90
2023-05-03T03:11:08.703Z,99.90
2023-05-03T03:13:39.998Z,99.90
2023-05-03T03:16:09.421Z,99.90
2023-05-03T03:18:38.010Z,99.90
2023-05-03T03:21:06.643Z,99.90
2023-05-03T03:23:36.753Z,99.90
2023-05-03T03:26:05.289Z,99.90
2023-05-03T03:28:36.319Z,99.90
2023-05-03T03:31:04.933Z,99.90
2023-05-03T03:33:36.089Z,99.90
2023-05-03T03:36:06.779Z,99.90
2023-05-03T03:38:36.732Z,99.90
2023-05-03T03:41:05.196Z,99.90
2023-05-03T03:43:34.292Z,99.90
2023-05-03T03:46:02.784Z,99.90
2023-05-03T03:48:31.422Z,99.90
2023-05-03T03:51:00.209Z,99.90
2023-05-03T03:53:28.855Z,99.90
2023-05-03T03:55:58.802Z,99.90
2023-05-03T03:58:27.500Z,99.90
2023-05-03T04:00:56.400Z,99.90
2023-05-03T04:03:25.016Z,99.90
2023-05-03T04:05:53.579Z,99.90
2023-05-03T04:08:22.052Z,99.90
2023-05-03T04:10:50.527Z,99.90
2023-05-03T04:13:20.559Z,99.90
2023-05-03T04:15:49.010Z,99.90
2023-05-03T04:18:17.441Z,99.90
2023-05-03T04:20:45.932Z,99.90
2023-05-03T04:23:14.369Z,99.90
2023-05-03T04:25:48.683Z,99.90
2023-05-03T04:28:17.461Z,99.90
2023-05-03T04:30:47.662Z,99.90
2023-05-03T04:33:16.984Z,99.90
2023-05-03T04:35:45.773Z,99.90
2023-05-03T04:38:14.824Z,99.90
2023-05-03T04:40:43.351Z,99.90
2023-05-03T04:43:12.066Z,99.90
2023-05-03T04:45:41.098Z,99.90
2023-05-03T04:48:10.999Z,99.90
2023-05-03T04:50:39.451Z,99.90
2023-05-03T04:53:07.890Z,99.90
2023-05-03T04:55:36.915Z,99.90
2023-05-03T04:58:05.902Z,99.90
2023-05-03T05:00:34.537Z,99.90
2023-05-03T05:03:03.124Z,99.90
2023-05-03T05:05:33.166Z,99.90
2023-05-03T05:08:01.843Z,99.90
2023-05-03T05:10:30.617Z,99.90
2023-05-03T05:12:59.248Z,99.90
2023-05-03T05:15:27.713Z,99.90
2023-05-03T05:17:56.354Z,99.90
2023-05-03T05:20:24.947Z,99.90
2023-05-03T05:22:55.334Z,99.90
2023-05-03T05:25:23.937Z,99.90
2023-05-03T05:27:52.344Z,99.90
2023-05-03T05:30:20.838Z,99.90
2023-05-03T05:32:49.466Z,99.90
2023-05-03T05:35:19.334Z,99.90
2023-05-03T05:37:47.933Z,99.90
2023-05-03T05:40:17.959Z,99.90
2023-05-03T05:42:46.755Z,99.90
2023-05-03T05:45:15.806Z,99.90
2023-05-03T05:47:44.422Z,99.90
2023-05-03T05:50:18.282Z,99.90
2023-05-03T05:52:47.786Z,99.90
2023-05-03T05:55:17.814Z,99.90
2023-05-03T05:57:46.354Z,99.90
2023-05-03T06:00:16.099Z,99.90
2023-05-03T06:02:45.094Z,99.90
2023-05-03T06:05:13.778Z,99.90
2023-05-03T06:07:42.431Z,99.90
2023-05-03T06:10:11.580Z,99.90
2023-05-03T06:12:41.451Z,99.90
2023-05-03T06:15:10.676Z,99.90
2023-05-03T06:17:39.397Z,99.90
2023-05-03T06:20:12.051Z,99.90
2023-05-03T06:22:40.703Z,99.90
2023-05-03T06:25:10.602Z,99.90
2023-05-03T06:27:40.762Z,99.90
2023-05-03T06:30:10.579Z,99.90
2023-05-03T06:32:40.895Z,99.90
2023-05-03T06:35:10.457Z,99.90
2023-05-03T06:37:38.912Z,99.90
2023-05-03T06:40:08.929Z,99.90
2023-05-03T06:42:37.497Z,99.90
2023-05-03T06:45:08.475Z,99.90
2023-05-03T06:47:37.517Z,99.90
2023-05-03T06:50:06.829Z,99.90
2023-05-03T06:52:35.650Z,99.90
2023-05-03T06:55:05.125Z,99.90
2023-05-03T06:57:34.313Z,99.90
2023-05-03T07:00:07.414Z,99.90
2023-05-03T07:02:37.586Z,99.90
2023-05-03T07:05:07.244Z,99.90
2023-05-03T07:07:36.121Z,99.90
2023-05-03T07:10:04.955Z,99.90
2023-05-03T07:12:34.184Z,99.90
2023-05-03T07:15:02.675Z,99.90
2023-05-03T07:17:31.164Z,99.90
2023-05-03T07:20:01.375Z,99.90
2023-05-03T07:22:30.004Z,99.90
2023-05-03T07:24:59.851Z,99.90
2023-05-03T07:27:28.664Z,99.90
2023-05-03T07:29:57.088Z,99.90
2023-05-03T07:32:25.983Z,99.90
2023-05-03T07:34:54.708Z,99.90
2023-05-03T07:37:25.126Z,99.90
2023-05-03T07:39:53.869Z,99.90
2023-05-03T07:42:22.290Z,99.90
2023-05-03T07:44:50.701Z,99.90
2023-05-03T07:47:19.254Z,99.90
2023-05-03T07:49:48.057Z,99.90
2023-05-03T07:52:16.583Z,99.90
2023-05-03T07:54:47.001Z,95.20
2023-05-03T07:57:16.472Z,99.90
2023-05-03T07:59:45.007Z,99.90
2023-05-03T08:02:13.505Z,99.90
2023-05-03T08:04:42.193Z,99.90
2023-05-03T08:07:10.953Z,99.90
2023-05-03T08:09:39.539Z,99.90
2023-05-03T08:12:09.711Z,99.90
2023-05-03T08:14:39.139Z,99.90
2023-05-03T08:17:08.092Z,99.90
2023-05-03T08:19:36.693Z,99.90
2023-05-03T08:22:05.756Z,99.90
2023-05-03T08:24:35.215Z,99.90
2023-05-03T08:27:03.817Z,99.90
2023-05-03T08:29:34.269Z,99.90
2023-05-03T08:32:02.874Z,99.90
2023-05-03T08:34:31.694Z,99.90
2023-05-03T08:37:00.371Z,99.90
2023-05-03T08:39:31.296Z,99.90
2023-05-03T08:42:00.501Z,99.90
2023-05-03T08:44:30.994Z,99.90
2023-05-03T08:47:01.304Z,99.90
2023-05-03T08:49:31.852Z,96.00
2023-05-03T08:52:01.708Z,96.80
2023-05-03T08:54:30.799Z,99.90
2023-05-03T08:56:59.456Z,99.90
2023-05-03T08:59:29.699Z,99.90
2023-05-03T09:01:58.199Z,99.90
2023-05-03T09:04:35.950Z,99.90
2023-05-03T09:07:15.979Z,99.90
2023-05-03T09:09:46.850Z,99.90
2023-05-03T09:12:36.454Z,99.90
2023-05-03T09:15:06.857Z,99.90
2023-05-03T09:17:35.731Z,99.90
2023-05-03T09:20:09.136Z,91.80
2023-05-03T09:22:37.816Z,78.00
2023-05-03T09:25:07.793Z,78.60
2023-05-03T09:27:36.610Z,69.40
2023-05-03T09:30:19.755Z,65.90
2023-05-03T09:32:51.177Z,90.90
2023-05-03T09:35:21.590Z,71.20
2023-05-03T09:37:50.104Z,75.40
2023-05-03T09:40:19.051Z,77.10
2023-05-03T09:43:09.295Z,69.10
2023-05-03T09:45:38.257Z,84.90
2023-05-03T09:48:08.860Z,88.60
2023-05-03T09:50:38.944Z,90.10
2023-05-03T09:53:09.277Z,80.00
2023-05-03T09:55:39.609Z,76.80
2023-05-03T09:58:09.252Z,84.80
2023-05-03T10:00:38.886Z,66.10
2023-05-03T10:03:11.487Z,54.90
2023-05-03T10:05:48.438Z,66.20
2023-05-03T10:08:26.376Z,68.50
2023-05-03T10:10:55.380Z,64.60
2023-05-03T10:13:24.906Z,63.50
2023-05-03T10:15:58.663Z,82.50
2023-05-03T10:18:31.834Z,85.70
2023-05-03T10:21:05.651Z,99.90
2023-05-03T10:23:34.437Z,88.90
2023-05-03T10:26:16.827Z,75.20
2023-05-03T10:28:46.535Z,78.00
2023-05-03T10:31:47.228Z,97.80
2023-05-03T10:34:23.623Z,94.60
2023-05-03T10:36:54.659Z,88.70
2023-05-03T10:39:23.515Z,99.90
2023-05-03T10:42:00.479Z,99.90
2023-05-03T10:44:30.136Z,98.70
2023-05-03T10:46:59.269Z,82.10
2023-05-03T10:49:27.860Z,79.80
2023-05-03T10:51:58.764Z,99.90
2023-05-03T10:54:27.721Z,99.90
2023-05-03T10:56:57.678Z,88.80
2023-05-03T10:59:26.616Z,73.60
2023-05-03T11:01:55.619Z,93.20
2023-05-03T11:04:43.161Z,78.10
2023-05-03T11:07:21.648Z,77.90
2023-05-03T11:09:50.127Z,99.90
2023-05-03T11:12:18.671Z,69.60
2023-05-03T11:14:47.462Z,75.50
2023-05-03T11:17:15.977Z,67.20
2023-05-03T11:19:46.336Z,70.00
2023-05-03T11:22:16.476Z,73.80
2023-05-03T11:24:44.973Z,70.90
2023-05-03T11:27:15.981Z,79.70
2023-05-03T11:29:51.118Z,74.90
2023-05-03T11:32:20.446Z,70.10
2023-05-03T11:34:50.407Z,68.70
2023-05-03T11:37:20.348Z,77.70
2023-05-03T11:39:48.828Z,91.00
2023-05-03T11:42:17.315Z,71.90
2023-05-03T11:44:46.329Z,88.90
2023-05-03T11:47:14.935Z,87.30
2023-05-03T11:49:53.674Z,93.90
2023-05-03T11:52:24.562Z,97.20
2023-05-03T11:54:53.252Z,99.90
2023-05-03T11:57:22.614Z,99.90
2023-05-03T11:59:51.244Z,99.90
2023-05-03T12:02:19.736Z,99.90
2023-05-03T12:04:48.597Z,99.90
2023-05-03T12:07:19.890Z,99.90
2023-05-03T12:10:01.029Z,99.90
2023-05-03T12:12:43.021Z,99.90
2023-05-03T12:15:16.374Z,99.90
2023-05-03T12:17:49.835Z,99.90
2023-05-03T12:22:56.328Z,99.90
2023-05-03T12:25:33.144Z,99.90
2023-05-03T12:30:39.942Z,99.90
2023-05-03T12:33:10.454Z,99.90
2023-05-03T12:35:40.956Z,99.90
2023-05-03T12:38:11.029Z,99.90
2023-05-03T12:40:41.334Z,99.90
2023-05-03T12:43:10.105Z,99.90
2023-05-03T12:45:40.832Z,99.90
2023-05-03T12:48:10.091Z,94.90
2023-05-03T12:50:39.672Z,99.90
2023-05-03T12:53:10.565Z,90.30
2023-05-03T12:55:44.006Z,94.10
2023-05-03T12:58:43.333Z,94.90
2023-05-03T13:01:26.610Z,99.50
2023-05-03T13:04:03.668Z,97.30
2023-05-03T13:06:42.855Z,99.90
2023-05-03T13:09:20.052Z,94.20
2023-05-03T13:11:52.799Z,97.70
2023-05-03T13:14:22.129Z,94.50
2023-05-03T13:16:51.492Z,94.40
2023-05-03T13:19:20.232Z,99.90
2023-05-03T13:21:50.062Z,94.80
2023-05-03T13:24:18.749Z,94.70
2023-05-03T13:26:47.303Z,95.80
2023-05-03T13:29:17.374Z,99.90
2023-05-03T13:31:45.873Z,99.90
2023-05-03T13:34:14.415Z,99.90
2023-05-03T13:36:42.995Z,99.90
2023-05-03T13:39:11.455Z,99.90
2023-05-03T13:41:42.278Z,99.90
2023-05-03T13:44:11.943Z,99.90
2023-05-03T13:46:43.326Z,99.90
2023-05-03T13:49:12.071Z,99.90
2023-05-03T13:51:41.535Z,99.90
2023-05-03T13:54:10.124Z,99.90
2023-05-03T13:56:38.687Z,96.60
2023-05-03T13:59:09.327Z,99.90
2023-05-03T14:01:38.387Z,99.90
2023-05-03T14:04:08.577Z,99.90
2023-05-03T14:06:40.231Z,96.10
2023-05-03T14:09:09.956Z,86.90
2023-05-03T14:11:39.116Z,82.80
2023-05-03T14:14:07.717Z,90.50
2023-05-03T14:16:41.437Z,87.00
2023-05-03T14:19:12.352Z,71.50
2023-05-03T14:21:43.107Z,67.60
2023-05-03T14:24:11.666Z,67.90
2023-05-03T14:26:40.233Z,65.70
2023-05-03T14:29:08.887Z,69.50
2023-05-03T14:31:37.547Z,75.70
2023-05-03T14:34:06.152Z,82.50
2023-05-03T14:36:38.988Z,78.00
2023-05-03T14:39:07.483Z,82.50
2023-05-03T14:41:37.554Z,92.10
2023-05-03T14:44:06.979Z,93.70
2023-05-03T14:46:36.056Z,99.90
2023-05-03T14:49:04.589Z,99.90
2023-05-03T14:51:34.266Z,99.90
2023-05-03T14:54:04.210Z,99.90
2023-05-03T14:56:33.306Z,95.30
2023-05-03T14:59:02.366Z,99.90
2023-05-03T15:01:30.953Z,99.90
2023-05-03T15:03:59.472Z,99.90
2023-05-03T15:06:30.919Z,99.90
2023-05-03T15:08:59.748Z,99.90
2023-05-03T15:11:29.609Z,99.90
2023-05-03T15:13:58.709Z,99.90
2023-05-03T15:16:27.804Z,99.90
2023-05-03T15:18:56.384Z,99.90
2023-05-03T15:21:25.086Z,99.90
2023-05-03T15:23:54.137Z,99.90
2023-05-03T15:26:24.558Z,99.90
2023-05-03T15:28:54.652Z,99.90
2023-05-03T15:31:23.203Z,99.90
2023-05-03T15:33:51.708Z,99.90
2023-05-03T15:36:20.283Z,99.90
2023-05-03T15:38:50.526Z,99.90
2023-05-03T15:41:19.157Z,99.90
2023-05-03T15:43:47.955Z,99.90
2023-05-03T15:46:18.027Z,99.90
2023-05-03T15:48:46.791Z,99.90
2023-05-03T15:51:15.631Z,99.90
2023-05-03T15:53:44.159Z,99.90
2023-05-03T15:56:12.904Z,99.90
2023-05-03T15:58:41.463Z,99.90
2023-05-03T16:01:10.678Z,95.50
2023-05-03T16:03:40.604Z,99.90
2023-05-03T16:06:09.791Z,93.40
2023-05-03T16:08:38.333Z,83.20
2023-05-03T16:11:06.960Z,99.90
2023-05-03T16:13:36.273Z,99.90
2023-05-03T16:16:04.983Z,78.10
2023-05-03T16:18:34.118Z,94.50
2023-05-03T16:21:04.247Z,91.50
2023-05-03T16:23:33.026Z,84.10
2023-05-03T16:26:01.644Z,97.90
2023-05-03T16:28:30.486Z,99.90
2023-05-03T16:30:58.954Z,99.90
2023-05-03T16:33:27.455Z,99.90
2023-05-03T16:35:55.942Z,99.90
2023-05-03T16:38:30.584Z,99.90
2023-05-03T16:41:00.648Z,99.90
2023-05-03T16:43:29.253Z,99.90
2023-05-03T16:46:00.305Z,99.90
2023-05-03T16:48:28.922Z,99.90
2023-05-03T16:50:57.705Z,99.90
2023-05-03T16:53:27.858Z,99.90
2023-05-03T16:55:56.669Z,99.90
2023-05-03T16:58:25.249Z,99.90
2023-05-03T17:00:53.981Z,99.90
2023-05-03T17:03:22.762Z,99.90
2023-05-03T17:05:51.860Z,99.90
2023-05-03T17:08:20.573Z,99.90
2023-05-03T17:10:50.516Z,99.90
2023-05-03T17:13:19.045Z,99.90
2023-05-03T17:15:48.139Z,99.90
2023-05-03T17:18:16.775Z,99.90
2023-05-03T17:20:45.450Z,99.90
2023-05-03T17:23:14.285Z,99.90
2023-05-03T17:25:44.505Z,99.90
2023-05-03T17:28:14.546Z,99.90
2023-05-03T17:30:43.068Z,99.90
2023-05-03T17:33:11.629Z,99.90
2023-05-03T17:35:40.211Z,99.90
2023-05-03T17:38:08.947Z,99.90
2023-05-03T17:40:41.191Z,99.90
2023-05-03T17:43:10.176Z,99.90
2023-05-03T17:45:41.792Z,99.90
2023-05-03T17:48:10.442Z,99.90
2023-05-03T17:50:40.377Z,99.90
2023-05-03T17:53:10.363Z,99.90
2023-05-03T17:55:39.550Z,99.90
2023-05-03T17:58:09.565Z,99.90
2023-05-03T18:00:39.819Z,99.90
2023-05-03T18:03:10.609Z,99.90
2023-05-03T18:05:39.267Z,99.90
2023-05-03T18:08:08.267Z,99.90
2023-05-03T18:10:37.242Z,99.90
2023-05-03T18:13:05.982Z,99.90
2023-05-03T18:15:34.737Z,99.90
2023-05-03T18:18:05.070Z,99.90
2023-05-03T18:20:34.327Z,99.90
2023-05-03T18:23:02.953Z,99.90
2023-05-03T18:25:31.717Z,99.90
2023-05-03T18:28:00.339Z,99.90
2023-05-03T18:30:29.496Z,99.90
2023-05-03T18:32:58.361Z,99.90
2023-05-03T18:35:29.376Z,99.90
2023-05-03T18:37:58.009Z,99.90
2023-05-03T18:40:26.715Z,99.90
2023-05-03T18:42:55.453Z,99.90
2023-05-03T18:45:25.578Z,99.90
2023-05-03T18:47:54.206Z,99.90
2023-05-03T18:50:23.025Z,99.90
2023-05-03T18:52:53.317Z,99.90
2023-05-03T18:55:21.859Z,99.90
2023-05-03T18:57:50.930Z,99.90
2023-05-03T19:00:19.804Z,99.90
2023-05-03T19:02:48.364Z,99.90
2023-05-03T19:05:17.142Z,99.90
2023-05-03T19:07:48.080Z,99.90
2023-05-03T19:10:20.023Z,99.90
2023-05-03T19:12:48.645Z,99.90
2023-05-03T19:15:17.289Z,99.90
2023-05-03T19:17:47.159Z,99.90
2023-05-03T19:20:16.021Z,99.90
2023-05-03T19:22:44.611Z,99.90
2023-05-03T19:25:13.292Z,99.90
2023-05-03T19:27:43.522Z,99.90
2023-05-03T19:30:12.783Z,99.90
2023-05-03T19:32:41.520Z,99.90
2023-05-03T19:35:10.664Z,99.90
2023-05-03T19:37:39.465Z,99.90
2023-05-03T19:40:09.197Z,99.90
2023-05-03T19:42:37.950Z,99.90
2023-05-03T19:45:10.059Z,99.90
2023-05-03T19:47:38.826Z,99.90
2023-05-03T19:50:08.530Z,99.90
2023-05-03T19:52:37.931Z,99.90
2023-05-03T19:55:07.785Z,99.90
2023-05-03T19:57:36.804Z,99.90
2023-05-03T20:00:09.648Z,99.90
2023-05-03T20:02:40.347Z,99.90
2023-05-03T20:05:10.814Z,99.90
2023-05-03T20:07:40.463Z,99.90
2023-05-03T20:10:10.162Z,99.90
2023-05-03T20:12:40.028Z,99.90
2023-05-03T20:15:13.887Z,99.90
2023-05-03T20:17:43.467Z,99.90
2023-05-03T20:20:13.421Z,99.90
2023-05-03T20:22:44.636Z,99.90
2023-05-03T20:25:14.455Z,99.90
2023-05-03T20:27:43.809Z,99.90
2023-05-03T20:30:15.303Z,99.90
2023-05-03T20:32:45.004Z,99.90
2023-05-03T20:35:14.342Z,99.90
2023-05-03T20:37:43.952Z,99.90
2023-05-03T20:40:14.420Z,99.90
2023-05-03T20:42:43.170Z,99.90
2023-05-03T20:45:15.340Z,99.90
2023-05-03T20:47:46.118Z,99.90
2023-05-03T20:50:15.016Z,99.90
2023-05-03T20:52:43.927Z,99.90
2023-05-03T20:55:15.613Z,99.90
2023-05-03T20:57:46.578Z,99.90
2023-05-03T21:00:17.788Z,99.90
2023-05-03T21:02:46.886Z,99.90
2023-05-03T21:05:16.208Z,99.90
2023-05-03T21:07:45.123Z,99.90
2023-05-03T21:10:13.688Z,99.90
2023-05-03T21:12:44.474Z,99.90
2023-05-03T21:15:13.537Z,99.90
2023-05-03T21:17:43.720Z,99.90
2023-05-03T21:20:13.015Z,99.90
2023-05-03T21:22:42.039Z,99.90
2023-05-03T21:25:12.108Z,99.90
2023-05-03T21:27:41.262Z,99.90
2023-05-03T21:30:11.732Z,99.90
2023-05-03T21:32:41.100Z,99.90
2023-05-03T21:35:12.035Z,99.90
2023-05-03T21:37:40.615Z,99.90
2023-05-03T21:40:10.257Z,99.90
2023-05-03T21:42:39.083Z,99.90
2023-05-03T21:45:09.522Z,99.90
2023-05-03T21:47:38.085Z,99.90
2023-05-03T21:50:08.183Z,99.90
2023-05-03T21:52:38.538Z,99.90
2023-05-03T21:55:08.517Z,99.90
2023-05-03T21:57:37.194Z,99.90
2023-05-03T22:00:07.054Z,99.90
2023-05-03T22:02:36.185Z,99.90
2023-05-03T22:05:04.954Z,99.90
2023-05-03T22:07:34.115Z,99.90
2023-05-03T22:10:04.788Z,99.90
2023-05-03T22:12:34.713Z,99.90
2023-05-03T22:15:04.171Z,99.90
2023-05-03T22:17:33.316Z,99.90
2023-05-03T22:20:02.076Z,99.90
2023-05-03T22:22:30.594Z,99.90
2023-05-03T22:25:01.058Z,99.90
2023-05-03T22:27:30.974Z,99.90
2023-05-03T22:29:59.534Z,99.90
2023-05-03T22:32:28.056Z,99.90
2023-05-03T22:34:56.715Z,99.90
2023-05-03T22:37:25.209Z,99.90
2023-05-03T22:39:53.718Z,99.90
2023-05-03T22:42:22.186Z,99.90
2023-05-03T22:44:53.683Z,99.90
2023-05-03T22:47:22.998Z,99.90
2023-05-03T22:49:52.033Z,99.90
2023-05-03T22:52:20.531Z,99.90
2023-05-03T22:54:49.082Z,99.90
2023-05-03T22:57:17.507Z,99.90
2023-05-03T22:59:46.978Z,99.90
2023-05-03T23:02:17.615Z,99.90
2023-05-03T23:04:46.195Z,99.90
2023-05-03T23:07:14.708Z,99.90
2023-05-03T23:09:43.254Z,99.90
2023-05-03T23:12:11.906Z,99.90
2023-05-03T23:14:43.802Z,99.90
2023-05-03T23:17:12.451Z,99.90
2023-05-03T23:19:42.642Z,99.90
2023-05-03T23:22:11.228Z,99.90
2023-05-03T23:24:39.745Z,99.90
2023-05-03T23:27:09.025Z,99.90
2023-05-03T23:29:38.051Z,99.90
2023-05-03T23:32:07.165Z,99.90
2023-05-03T23:34:36.480Z,99.90
2023-05-03T23:37:06.382Z,99.90
2023-05-03T23:39:35.400Z,99.90
2023-05-03T23:42:03.908Z,99.90
2023-05-03T23:44:42.456Z,99.90
2023-05-03T23:47:19.301Z,99.90
2023-05-03T23:49:47.912Z,99.90
2023-05-03T23:52:20.012Z,99.90
2023-05-03T23:54:48.557Z,99.90
2023-05-03T23:57:17.095Z,99.90
2023-05-03T23:59:45.613Z,99.90
